Time;durP1;ratioP1;P1;durP2;ratioP2;P2;SDS_P1;SDS_P2;PMS_P1;PMS_P2;Temp;Humidity;BMP_temperature;BMP_pressure;BME280_temperature;BME280_humidity;BME280_pressure;Samples;Min_cycle;Max_cycle;Signal;HPM_P1;HPM_P2
2024/03/14 00:02:21;;;;;;;19.25;3.20;;;;;;;;;;4734515;30;20059;-84
2024/03/14 00:04:52;;;;;;;19.48;3.83;;;;;;;;;;4749595;30;20542;-85
2024/03/14 00:07:22;;;;;;;13.40;3.17;;;;;;;;;;4751690;30;20048;-86
2024/03/14 00:09:52;;;;;;;16.92;3.10;;;;;;;;;;4752372;30;20153;-86
2024/03/14 00:12:22;;;;;;;17.50;2.78;;;;;;;;;;4752322;30;20508;-85
2024/03/14 00:14:54;;;;;;;11.38;3.22;;;;;;;;;;4735334;30;20063;-85
2024/03/14 00:17:24;;;;;;;14.25;2.95;;;;;;;;;;4736402;30;20465;-85
2024/03/14 00:19:55;;;;;;;15.82;3.80;;;;;;;;;;4736206;30;20059;-84
2024/03/14 00:22:24;;;;;;;24.02;3.53;;;;;;;;;;4735734;30;20495;-85
2024/03/14 00:24:56;;;;;;;17.50;3.20;;;;;;;;;;4735712;30;20057;-83
2024/03/14 00:27:28;;;;;;;15.32;3.00;;;;;;;;;;4735336;30;20076;-86
2024/03/14 00:29:58;;;;;;;13.23;2.90;;;;;;;;;;4735649;30;20069;-84
2024/03/14 00:32:30;;;;;;;12.20;3.40;;;;;;;;;;4734822;30;20064;-85
2024/03/14 00:35:03;;;;;;;22.13;4.70;;;;;;;;;;4735405;30;20409;-84
2024/03/14 00:37:33;;;;;;;;;;;;;;;;;;4735796;30;20392;-83
2024/03/14 00:40:04;;;;;;;15.93;2.70;;;;;;;;;;4734990;30;19927;-85
2024/03/14 00:42:34;;;;;;;14.20;3.00;;;;;;;;;;4737949;30;20056;-84
2024/03/14 00:45:15;;;;;;;15.68;2.88;;;;;;;;;;4751990;30;20056;-85
2024/03/14 00:47:46;;;;;;;13.05;2.88;;;;;;;;;;4757159;30;20067;-84
2024/03/14 00:50:19;;;;;;;;;;;;;;;;;;4754024;30;20052;-83
2024/03/14 00:52:49;;;;;;;16.88;3.42;;;;;;;;;;4753121;30;19926;-85
2024/03/14 01:07:48;;;;;;;9.48;2.85;;;;;;;;;;5745874;24;20038;-84
2024/03/14 01:10:24;;;;;;;13.10;3.55;;;;;;;;;;4714743;30;20060;-83
2024/03/14 01:21:22;;;;;;;12.07;2.70;;;;;;;;;;5177945;24;20023;-84
2024/03/14 01:23:54;;;;;;;14.00;2.72;;;;;;;;;;4756721;30;20056;-86
2024/03/14 01:26:25;;;;;;;9.25;3.38;;;;;;;;;;4759047;30;20060;-84
2024/03/14 01:28:56;;;;;;;12.27;3.42;;;;;;;;;;4757550;30;20044;-85
2024/03/14 01:32:15;;;;;;;17.15;3.00;;;;;;;;;;4756327;30;20056;-85
2024/03/14 01:34:47;;;;;;;10.23;3.13;;;;;;;;;;4756156;30;20056;-86
2024/03/14 01:37:21;;;;;;;12.18;3.05;;;;;;;;;;4754469;30;20044;-86
2024/03/14 01:39:51;;;;;;;12.38;4.00;;;;;;;;;;4754020;30;20048;-87
2024/03/14 01:42:21;;;;;;;12.65;3.25;;;;;;;;;;4754650;30;20052;-86
2024/03/14 01:45:00;;;;;;;12.75;3.63;;;;;;;;;;4755080;30;20052;-86
2024/03/14 01:47:47;;;;;;;9.90;3.08;;;;;;;;;;4754867;30;20067;-84
2024/03/14 01:50:19;;;;;;;14.40;3.30;;;;;;;;;;4754167;30;20052;-85
2024/03/14 01:52:50;;;;;;;16.98;3.17;;;;;;;;;;4738614;30;20063;-85
2024/03/14 01:55:22;;;;;;;17.13;3.47;;;;;;;;;;4753718;30;20063;-85
2024/03/14 01:57:52;;;;;;;14.02;3.17;;;;;;;;;;4736952;30;20052;-84
2024/03/14 02:00:38;;;;;;;12.43;3.33;;;;;;;;;;4754032;30;20492;-86
2024/03/14 02:03:11;;;;;;;10.63;3.72;;;;;;;;;;4743892;30;20060;-86
2024/03/14 02:05:54;;;;;;;14.43;3.60;;;;;;;;;;4762036;30;20048;-83
2024/03/14 02:08:26;;;;;;;13.38;3.30;;;;;;;;;;4760764;30;20048;-84
2024/03/14 02:10:57;;;;;;;14.07;3.28;;;;;;;;;;4746287;30;20052;-84
2024/03/14 02:13:29;;;;;;;15.50;3.50;;;;;;;;;;4775622;30;20060;-83
2024/03/14 02:15:59;;;;;;;18.85;3.78;;;;;;;;;;4775671;30;20059;-83
2024/03/14 02:18:32;;;;;;;12.63;3.80;;;;;;;;;;4776260;30;20032;-84
2024/03/14 02:21:03;;;;;;;20.25;3.70;;;;;;;;;;4776295;30;20038;-84
2024/03/14 02:23:35;;;;;;;14.25;3.42;;;;;;;;;;4766027;30;20067;-86
2024/03/14 02:26:06;;;;;;;12.80;3.45;;;;;;;;;;4753689;30;20082;-85
2024/03/14 02:28:37;;;;;;;13.50;4.47;;;;;;;;;;4753790;30;20482;-85
2024/03/14 02:31:09;;;;;;;14.43;3.92;;;;;;;;;;4737322;30;20068;-85
2024/03/14 02:33:40;;;;;;;9.15;3.97;;;;;;;;;;4756703;30;20048;-87
2024/03/14 02:36:26;;;;;;;8.70;3.72;;;;;;;;;;4756471;30;20071;-85
2024/03/14 02:38:57;;;;;;;13.07;4.07;;;;;;;;;;4754605;30;20054;-85
2024/03/14 02:41:30;;;;;;;15.00;3.78;;;;;;;;;;4737479;30;20136;-85
2024/03/14 02:44:15;;;;;;;15.18;3.45;;;;;;;;;;4738342;30;20060;-86
2024/03/14 02:46:46;;;;;;;13.05;3.95;;;;;;;;;;4743060;30;20407;-86
2024/03/14 02:49:17;;;;;;;11.02;4.22;;;;;;;;;;4770466;30;20062;-86
2024/03/14 02:51:47;;;;;;;17.70;3.85;;;;;;;;;;4768608;30;20518;-84
2024/03/14 02:54:19;;;;;;;10.60;3.92;;;;;;;;;;4770379;30;20047;-83
2024/03/14 02:56:52;;;;;;;14.50;4.40;;;;;;;;;;4769414;30;20114;-84
2024/03/14 02:59:23;;;;;;;17.15;4.40;;;;;;;;;;4772357;30;20043;-83
2024/03/14 03:01:54;;;;;;;18.30;5.43;;;;;;;;;;4769877;30;20056;-85
2024/03/14 03:04:30;;;;;;;16.85;5.60;;;;;;;;;;4770499;30;20055;-84
2024/03/14 03:07:05;;;;;;;15.18;5.82;;;;;;;;;;4771213;30;20063;-83
2024/03/14 03:09:38;;;;;;;15.43;5.00;;;;;;;;;;4771018;30;20051;-84
2024/03/14 03:12:09;;;;;;;13.40;4.70;;;;;;;;;;4771724;30;20051;-84
2024/03/14 03:14:41;;;;;;;16.33;5.05;;;;;;;;;;4755437;30;20059;-85
2024/03/14 03:17:12;;;;;;;16.75;4.53;;;;;;;;;;4770893;30;20519;-84
2024/03/14 03:19:43;;;;;;;18.63;4.53;;;;;;;;;;4770378;30;20048;-84
2024/03/14 03:22:14;;;;;;;17.48;4.03;;;;;;;;;;4770773;30;20060;-86
2024/03/14 03:24:47;;;;;;;14.20;5.18;;;;;;;;;;4771043;30;20051;-86
2024/03/14 03:27:17;;;;;;;16.40;4.50;;;;;;;;;;4770374;30;20061;-86
2024/03/14 03:29:49;;;;;;;14.95;4.47;;;;;;;;;;4770760;30;20047;-86
2024/03/14 03:32:19;;;;;;;14.13;4.20;;;;;;;;;;4771196;30;20051;-85
2024/03/14 03:34:49;;;;;;;12.75;4.45;;;;;;;;;;4770694;30;20063;-85
2024/03/14 03:37:21;;;;;;;15.10;4.97;;;;;;;;;;4770360;30;20369;-84
2024/03/14 03:39:51;;;;;;;19.10;4.88;;;;;;;;;;4771074;30;20419;-85
2024/03/14 03:42:21;;;;;;;19.90;4.47;;;;;;;;;;4772159;30;20055;-85
2024/03/14 03:44:54;;;;;;;12.82;5.40;;;;;;;;;;4766123;30;20409;-85
2024/03/14 04:12:08;;;;;;;14.80;5.50;;;;;;;;;;4718256;30;20407;-85
2024/03/14 04:14:42;;;;;;;12.85;5.10;;;;;;;;;;4721070;30;20056;-84
2024/03/14 04:17:14;;;;;;;13.07;5.20;;;;;;;;;;4718623;30;20532;-84
2024/03/14 04:19:45;;;;;;;14.20;5.22;;;;;;;;;;4720119;30;20453;-86
2024/03/14 04:22:19;;;;;;;11.38;4.80;;;;;;;;;;4719732;30;20520;-86
2024/03/14 04:24:49;;;;;;;11.73;5.00;;;;;;;;;;4720154;30;20060;-86
2024/03/14 04:27:20;;;;;;;13.38;5.10;;;;;;;;;;4720472;30;20057;-84
2024/03/14 04:29:53;;;;;;;13.82;5.10;;;;;;;;;;4720072;30;20057;-84
2024/03/14 04:32:24;;;;;;;16.08;5.00;;;;;;;;;;4720774;30;20052;-85
2024/03/14 04:34:54;;;;;;;15.02;4.32;;;;;;;;;;4720062;30;20053;-86
2024/03/14 04:37:27;;;;;;;10.13;4.22;;;;;;;;;;4720105;30;20056;-83
2024/03/14 04:39:58;;;;;;;16.27;4.80;;;;;;;;;;4720928;30;20053;-87
2024/03/14 04:42:29;;;;;;;13.85;4.70;;;;;;;;;;4720521;30;20072;-87
2024/03/14 04:45:01;;;;;;;15.55;4.45;;;;;;;;;;4719725;30;20061;-84
2024/03/14 04:47:33;;;;;;;14.65;5.15;;;;;;;;;;4720111;30;20486;-86
2024/03/14 04:50:04;;;;;;;11.82;4.43;;;;;;;;;;4720976;30;20393;-86
2024/03/14 04:52:34;;;;;;;10.48;4.38;;;;;;;;;;4719793;30;20045;-86
2024/03/14 04:55:08;;;;;;;20.15;4.63;;;;;;;;;;4719160;30;20045;-86
2024/03/14 04:57:43;;;;;;;13.93;4.80;;;;;;;;;;4718655;30;20061;-85
2024/03/14 05:00:21;;;;;;;14.52;4.47;;;;;;;;;;4720718;30;20045;-85
2024/03/14 05:02:55;;;;;;;11.52;4.53;;;;;;;;;;4719112;30;20076;-84
2024/03/14 05:05:26;;;;;;;12.15;4.85;;;;;;;;;;4719573;30;20056;-85
2024/03/14 05:07:56;;;;;;;12.57;4.63;;;;;;;;;;4719826;30;20068;-84
2024/03/14 05:10:28;;;;;;;10.70;4.63;;;;;;;;;;4718969;30;20057;-85
2024/03/14 05:12:59;;;;;;;15.65;4.93;;;;;;;;;;4719491;30;20067;-85
2024/03/14 05:15:32;;;;;;;14.45;4.38;;;;;;;;;;4705506;30;20060;-86
2024/03/14 05:18:05;;;;;;;11.23;3.80;;;;;;;;;;4718918;30;20045;-85
2024/03/14 05:20:35;;;;;;;15.07;4.35;;;;;;;;;;4719199;30;20494;-86
2024/03/14 05:23:05;;;;;;;10.70;4.50;;;;;;;;;;4720328;30;20057;-84
2024/03/14 05:25:35;;;;;;;9.68;3.28;;;;;;;;;;4719406;30;20080;-85
2024/03/14 05:28:06;;;;;;;12.60;4.00;;;;;;;;;;4721644;30;20053;-84
2024/03/14 05:30:36;;;;;;;18.00;4.40;;;;;;;;;;4720144;30;20041;-84
2024/03/14 05:33:09;;;;;;;14.52;3.75;;;;;;;;;;4719189;30;20049;-84
2024/03/14 05:35:41;;;;;;;14.27;3.85;;;;;;;;;;4719130;30;20053;-85
2024/03/14 05:38:14;;;;;;;10.10;3.60;;;;;;;;;;4718532;30;20049;-86
2024/03/14 05:40:45;;;;;;;12.60;4.63;;;;;;;;;;4718952;30;20064;-86
2024/03/14 05:43:15;;;;;;;12.50;3.45;;;;;;;;;;4718740;30;20053;-85
2024/03/14 05:45:46;;;;;;;11.38;4.05;;;;;;;;;;4718858;30;20398;-86
2024/03/14 05:48:16;;;;;;;7.88;3.40;;;;;;;;;;4719364;30;20041;-85
2024/03/14 05:50:46;;;;;;;10.30;4.18;;;;;;;;;;4719709;30;20413;-84
2024/03/14 05:53:18;;;;;;;10.32;3.60;;;;;;;;;;4718965;30;20052;-85
2024/03/14 05:55:49;;;;;;;9.63;3.75;;;;;;;;;;4719152;30;20378;-85
2024/03/14 05:58:21;;;;;;;7.47;3.35;;;;;;;;;;4718734;30;20049;-85
2024/03/14 06:00:51;;;;;;;9.75;3.47;;;;;;;;;;4718642;30;20057;-85
2024/03/14 06:03:22;;;;;;;10.10;3.80;;;;;;;;;;4718286;30;20049;-85
2024/03/14 06:05:54;;;;;;;11.45;3.92;;;;;;;;;;4718211;30;20056;-84
2024/03/14 06:08:24;;;;;;;11.88;4.32;;;;;;;;;;4718180;30;20108;-85
2024/03/14 06:10:54;;;;;;;12.32;4.07;;;;;;;;;;4718690;30;20414;-84
2024/03/14 06:13:25;;;;;;;10.43;4.10;;;;;;;;;;4720045;30;20057;-84
2024/03/14 06:15:56;;;;;;;9.38;3.65;;;;;;;;;;4718052;30;20401;-86
2024/03/14 06:18:29;;;;;;;12.77;4.25;;;;;;;;;;4702077;30;20063;-84
2024/03/14 06:21:00;;;;;;;12.70;3.22;;;;;;;;;;4718409;30;20060;-85
2024/03/14 06:23:33;;;;;;;8.68;3.30;;;;;;;;;;4719221;30;20494;-85
2024/03/14 06:26:04;;;;;;;9.95;3.28;;;;;;;;;;4718448;30;20049;-84
2024/03/14 06:28:38;;;;;;;12.38;3.17;;;;;;;;;;4718020;30;20060;-84
2024/03/14 06:31:11;;;;;;;12.88;3.95;;;;;;;;;;4718246;30;20049;-85
2024/03/14 06:33:41;;;;;;;14.80;3.45;;;;;;;;;;4718689;30;20049;-84
2024/03/14 06:36:12;;;;;;;9.35;3.40;;;;;;;;;;4718010;30;20049;-86
2024/03/14 06:38:43;;;;;;;;;;;;;;;;;;4718813;30;20490;-84
2024/03/14 06:41:14;;;;;;;9.07;3.70;;;;;;;;;;4717673;30;19926;-84
2024/03/14 06:43:45;;;;;;;8.88;3.28;;;;;;;;;;4718434;30;20064;-84
2024/03/14 06:46:16;;;;;;;8.95;3.28;;;;;;;;;;4717497;30;20136;-85
2024/03/14 06:48:45;;;;;;;14.73;3.55;;;;;;;;;;4718005;30;20405;-85
2024/03/14 06:51:17;;;;;;;10.05;3.15;;;;;;;;;;4718131;30;20060;-85
2024/03/14 06:53:47;;;;;;;6.93;3.17;;;;;;;;;;4718763;30;20060;-85
2024/03/14 06:56:18;;;;;;;8.13;3.05;;;;;;;;;;4719109;30;20053;-85
2024/03/14 06:58:49;;;;;;;10.20;3.28;;;;;;;;;;4717590;30;20502;-84
2024/03/14 07:01:19;;;;;;;9.85;3.63;;;;;;;;;;4717942;30;20060;-83
2024/03/14 07:03:52;;;;;;;10.10;3.67;;;;;;;;;;4718593;30;20064;-84
2024/03/14 07:06:23;;;;;;;16.77;3.60;;;;;;;;;;4717403;30;20064;-84
2024/03/14 07:08:59;;;;;;;6.50;2.42;;;;;;;;;;4719829;30;20060;-83
2024/03/14 07:11:29;;;;;;;8.63;3.08;;;;;;;;;;4718494;30;20057;-84
2024/03/14 07:14:00;;;;;;;7.63;2.97;;;;;;;;;;4702373;30;20080;-84
2024/03/14 07:16:30;;;;;;;13.23;2.90;;;;;;;;;;4718663;30;20060;-83
2024/03/14 07:19:00;;;;;;;9.05;2.70;;;;;;;;;;4720849;30;20529;-83
2024/03/14 07:21:33;;;;;;;6.90;3.00;;;;;;;;;;4720699;30;20061;-83
2024/03/14 07:24:06;;;;;;;7.50;3.25;;;;;;;;;;4721926;30;20056;-84
2024/03/14 07:26:40;;;;;;;6.57;2.83;;;;;;;;;;4722411;30;20060;-83
2024/03/14 07:29:12;;;;;;;7.72;3.10;;;;;;;;;;4724793;30;20160;-83
2024/03/14 07:31:47;;;;;;;8.82;3.63;;;;;;;;;;4722107;30;20057;-84
2024/03/14 07:34:18;;;;;;;9.35;3.25;;;;;;;;;;4721824;30;20379;-84
2024/03/14 07:36:49;;;;;;;11.32;3.22;;;;;;;;;;4720250;30;20053;-84
2024/03/14 07:39:25;;;;;;;10.57;3.33;;;;;;;;;;4720814;30;20076;-84
2024/03/14 07:41:55;;;;;;;12.85;3.13;;;;;;;;;;4721086;30;20061;-84
2024/03/14 07:44:27;;;;;;;5.85;2.72;;;;;;;;;;4720297;30;20061;-85
2024/03/14 07:47:03;;;;;;;9.27;3.10;;;;;;;;;;4722300;30;20072;-85
2024/03/14 07:49:35;;;;;;;10.38;3.15;;;;;;;;;;4705955;30;20053;-86
2024/03/14 07:52:05;;;;;;;10.15;3.15;;;;;;;;;;4720126;30;20540;-84
2024/03/14 07:54:36;;;;;;;7.40;3.15;;;;;;;;;;4719004;30;20061;-86
2024/03/14 07:57:07;;;;;;;9.02;3.38;;;;;;;;;;4720615;30;20060;-84
2024/03/14 07:59:38;;;;;;;6.65;2.88;;;;;;;;;;4720136;30;20060;-85
2024/03/14 08:02:10;;;;;;;7.18;2.95;;;;;;;;;;4720716;30;20409;-86
2024/03/14 08:04:41;;;;;;;7.38;3.22;;;;;;;;;;4721526;30;20068;-85
2024/03/14 08:07:17;;;;;;;7.38;3.13;;;;;;;;;;4721257;30;20072;-85
2024/03/14 08:09:47;;;;;;;9.30;3.22;;;;;;;;;;4720218;30;20378;-84
2024/03/14 08:12:17;;;;;;;7.80;2.75;;;;;;;;;;4720312;30;20057;-84
2024/03/14 08:14:47;;;;;;;14.25;4.10;;;;;;;;;;4719879;30;20068;-86
2024/03/14 08:17:20;;;;;;;8.73;3.50;;;;;;;;;;4720044;30;20060;-85
2024/03/14 08:19:56;;;;;;;8.23;3.42;;;;;;;;;;4719018;30;20421;-84
2024/03/14 08:22:26;;;;;;;5.50;3.00;;;;;;;;;;4719117;30;20049;-85
2024/03/14 08:24:58;;;;;;;10.32;3.17;;;;;;;;;;4720096;30;20049;-86
2024/03/14 08:27:28;;;;;;;6.53;3.08;;;;;;;;;;4720085;30;20053;-85
2024/03/14 08:29:59;;;;;;;8.90;2.97;;;;;;;;;;4720058;30;20053;-85
2024/03/14 08:32:32;;;;;;;5.75;2.97;;;;;;;;;;4725300;30;20057;-85
2024/03/14 08:35:05;;;;;;;11.73;3.10;;;;;;;;;;4709567;30;20056;-84
2024/03/14 08:37:35;;;;;;;9.00;3.28;;;;;;;;;;4730707;30;20052;-84
2024/03/14 08:40:08;;;;;;;9.45;2.88;;;;;;;;;;4741878;30;20067;-81
2024/03/14 08:42:39;;;;;;;8.05;2.83;;;;;;;;;;4742449;30;20057;-81
2024/03/14 08:45:16;;;;;;;6.95;3.22;;;;;;;;;;4741470;30;20056;-81
2024/03/14 08:47:47;;;;;;;7.55;3.08;;;;;;;;;;4720313;30;20076;-84
2024/03/14 08:50:21;;;;;;;8.20;2.97;;;;;;;;;;4719573;30;20049;-85
2024/03/14 08:52:56;;;;;;;11.35;3.00;;;;;;;;;;4720451;30;20248;-85
2024/03/14 08:55:39;;;;;;;9.63;2.85;;;;;;;;;;4720162;30;20053;-84
2024/03/14 08:58:12;;;;;;;16.40;3.25;;;;;;;;;;4719375;30;20049;-83
2024/03/14 09:00:42;;;;;;;;;;;;;;;;;;4719850;30;20492;-84
2024/03/14 09:03:15;;;;;;;6.25;2.67;;;;;;;;;;4719260;30;19927;-84
2024/03/14 09:05:46;;;;;;;7.47;2.72;;;;;;;;;;4719428;30;20053;-83
2024/03/14 09:08:24;;;;;;;11.95;2.97;;;;;;;;;;4719654;30;20533;-83
2024/03/14 09:10:55;;;;;;;13.13;3.05;;;;;;;;;;4707609;30;20073;-84
2024/03/14 09:13:30;;;;;;;10.88;2.97;;;;;;;;;;4701861;30;20049;-83
2024/03/14 09:16:00;;;;;;;10.02;3.10;;;;;;;;;;4701738;30;20046;-86
2024/03/14 09:18:31;;;;;;;12.70;3.08;;;;;;;;;;4701724;30;20053;-85
2024/03/14 09:21:02;;;;;;;9.35;3.38;;;;;;;;;;4702230;30;20054;-84
2024/03/14 09:23:32;;;;;;;10.38;3.20;;;;;;;;;;4702055;30;20056;-85
2024/03/14 09:26:03;;;;;;;8.25;3.45;;;;;;;;;;4700904;30;20513;-86
2024/03/14 09:28:33;;;;;;;9.95;3.63;;;;;;;;;;4701591;30;20421;-84
2024/03/14 09:31:03;;;;;;;12.10;3.65;;;;;;;;;;4702037;30;20441;-83
2024/03/14 09:33:34;;;;;;;8.35;3.42;;;;;;;;;;4701305;30;20061;-84
2024/03/14 09:36:13;;;;;;;6.97;3.30;;;;;;;;;;4702476;30;20054;-83
2024/03/14 09:38:44;;;;;;;7.82;3.05;;;;;;;;;;4687908;30;20049;-85
2024/03/14 09:41:46;;;;;;;6.55;3.10;;;;;;;;;;4702167;30;20061;-84
2024/03/14 09:44:20;;;;;;;10.00;3.13;;;;;;;;;;4702520;30;20061;-84
2024/03/14 09:47:10;;;;;;;6.68;3.03;;;;;;;;;;4701680;30;20050;-84
2024/03/14 09:49:45;;;;;;;11.15;3.22;;;;;;;;;;4700761;30;20045;-83
2024/03/14 09:52:16;;;;;;;10.23;3.17;;;;;;;;;;4701420;30;20058;-84
2024/03/14 09:54:49;;;;;;;10.52;3.60;;;;;;;;;;4702287;30;20061;-83
2024/03/14 09:57:20;;;;;;;8.82;3.17;;;;;;;;;;4701241;30;20067;-83
2024/03/14 09:59:52;;;;;;;10.07;3.47;;;;;;;;;;4701225;30;20053;-84
2024/03/14 10:02:26;;;;;;;10.93;3.80;;;;;;;;;;4701456;30;20062;-83
2024/03/14 10:04:58;;;;;;;17.27;3.22;;;;;;;;;;4686439;30;20061;-84
2024/03/14 10:07:31;;;;;;;12.50;3.95;;;;;;;;;;4700838;30;20053;-84
2024/03/14 10:10:05;;;;;;;10.85;3.53;;;;;;;;;;4705935;30;20071;-85
2024/03/14 10:12:39;;;;;;;20.15;3.60;;;;;;;;;;4718030;30;20080;-85
2024/03/14 10:15:13;;;;;;;10.73;3.40;;;;;;;;;;4718523;30;20053;-85
2024/03/14 10:17:47;;;;;;;17.45;4.75;;;;;;;;;;4718166;30;20379;-84
2024/03/14 10:20:17;;;;;;;14.98;3.67;;;;;;;;;;4717988;30;20068;-84
2024/03/14 10:22:51;;;;;;;10.60;4.35;;;;;;;;;;4718213;30;20064;-85
2024/03/14 10:25:23;;;;;;;14.30;3.90;;;;;;;;;;4716890;30;20045;-86
2024/03/14 10:27:58;;;;;;;12.65;3.47;;;;;;;;;;4717840;30;20061;-87
2024/03/14 10:30:52;;;;;;;15.32;4.03;;;;;;;;;;4717377;30;20057;-84
2024/03/14 10:33:26;;;;;;;31.00;4.65;;;;;;;;;;4717815;30;20076;-86
2024/03/14 10:35:59;;;;;;;15.85;3.85;;;;;;;;;;4717847;30;20410;-84
2024/03/14 10:38:36;;;;;;;16.48;3.88;;;;;;;;;;4719257;30;20541;-87
2024/03/14 10:41:09;;;;;;;15.07;3.20;;;;;;;;;;4734256;30;20060;-85
2024/03/14 10:43:47;;;;;;;11.98;3.22;;;;;;;;;;4723887;30;20064;-85
2024/03/14 10:46:17;;;;;;;16.90;3.75;;;;;;;;;;4698985;30;20054;-85
2024/03/14 10:48:51;;;;;;;12.85;3.63;;;;;;;;;;4716768;30;20060;-85
2024/03/14 10:51:21;;;;;;;;;;;;;;;;;;4728932;30;20051;-85
2024/03/14 10:53:55;;;;;;;12.38;3.15;;;;;;;;;;4734329;30;20029;-85
2024/03/14 10:56:27;;;;;;;9.45;3.45;;;;;;;;;;4734536;30;20060;-85
2024/03/14 10:58:59;;;;;;;9.68;4.07;;;;;;;;;;4734495;30;20053;-85
2024/03/14 11:01:32;;;;;;;16.02;3.70;;;;;;;;;;4732468;30;20059;-85
2024/03/14 11:04:09;;;;;;;11.48;3.70;;;;;;;;;;4734520;30;20064;-83
2024/03/14 11:06:43;;;;;;;12.38;3.72;;;;;;;;;;4733066;30;20070;-84
2024/03/14 11:09:17;;;;;;;11.45;3.60;;;;;;;;;;4734543;30;20062;-84
2024/03/14 11:11:54;;;;;;;10.35;3.72;;;;;;;;;;4719425;30;20048;-85
2024/03/14 11:14:36;;;;;;;14.05;4.10;;;;;;;;;;4715549;30;20056;-81
2024/03/14 11:17:09;;;;;;;11.60;3.80;;;;;;;;;;4716026;30;20061;-85
2024/03/14 11:19:48;;;;;;;23.27;4.35;;;;;;;;;;4716323;30;20064;-82
2024/03/14 11:22:20;;;;;;;11.35;3.95;;;;;;;;;;4716009;30;20477;-81
2024/03/14 11:24:54;;;;;;;;;;;;;;;;;;4716052;30;20060;-85
2024/03/14 11:27:26;;;;;;;27.20;5.90;;;;;;;;;;4717239;30;19934;-83
2024/03/14 11:30:00;;;;;;;14.68;3.72;;;;;;;;;;4733426;30;20052;-83
2024/03/14 11:32:55;;;;;;;12.50;3.30;;;;;;;;;;4733223;30;20405;-82
2024/03/14 11:35:43;;;;;;;9.05;3.30;;;;;;;;;;4732968;30;20060;-83
2024/03/14 11:38:20;;;;;;;11.88;3.25;;;;;;;;;;4738827;30;20075;-83
2024/03/14 11:40:53;;;;;;;7.70;3.00;;;;;;;;;;4728982;30;20057;-84
2024/03/14 11:43:27;;;;;;;12.77;3.20;;;;;;;;;;4720180;30;20049;-84
2024/03/14 11:46:05;;;;;;;11.10;3.40;;;;;;;;;;4719193;30;20057;-84
2024/03/14 11:48:36;;;;;;;13.48;3.50;;;;;;;;;;4728324;30;20068;-84
2024/03/14 11:51:18;;;;;;;13.85;3.95;;;;;;;;;;4737376;30;20127;-84
2024/03/14 11:53:51;;;;;;;19.13;4.38;;;;;;;;;;4736656;30;20068;-84
2024/03/14 11:56:25;;;;;;;9.07;3.42;;;;;;;;;;4735611;30;20405;-83
2024/03/14 11:58:56;;;;;;;16.98;3.50;;;;;;;;;;4735672;30;20049;-84
2024/03/14 12:01:31;;;;;;;;;;;;;;;;;;4733395;30;20061;-82
2024/03/14 12:04:19;;;;;;;15.48;3.92;;;;;;;;;;4736459;30;19927;-82
2024/03/14 12:06:50;;;;;;;15.90;4.03;;;;;;;;;;4737712;30;20053;-84
2024/03/14 12:09:22;;;;;;;15.73;3.90;;;;;;;;;;4736841;30;20058;-83
2024/03/14 12:11:54;;;;;;;18.02;3.50;;;;;;;;;;4716812;30;20061;-83
2024/03/14 12:14:25;;;;;;;14.65;3.22;;;;;;;;;;4719443;30;20064;-82
2024/03/14 12:16:55;;;;;;;17.67;3.33;;;;;;;;;;4719389;30;20052;-82
2024/03/14 12:19:25;;;;;;;15.27;3.10;;;;;;;;;;4719763;30;20060;-82
2024/03/14 12:21:57;;;;;;;17.80;3.28;;;;;;;;;;4718580;30;20049;-83
2024/03/14 12:24:27;;;;;;;;;;;;;;;;;;4719962;30;20502;-82
2024/03/14 12:26:57;;;;;;;13.00;3.35;;;;;;;;;;4719079;30;19944;-84
2024/03/14 12:29:28;;;;;;;12.80;3.00;;;;;;;;;;4719343;30;20060;-82
2024/03/14 12:31:59;;;;;;;11.57;2.63;;;;;;;;;;4719551;30;20061;-84
2024/03/14 12:34:32;;;;;;;19.10;2.90;;;;;;;;;;4719174;30;20056;-82
2024/03/14 12:37:04;;;;;;;9.98;2.08;;;;;;;;;;4718936;30;20057;-82
2024/03/14 12:39:34;;;;;;;13.70;2.80;;;;;;;;;;4718763;30;20045;-84
2024/03/14 12:42:05;;;;;;;12.43;2.80;;;;;;;;;;4719119;30;20057;-84
2024/03/14 12:44:35;;;;;;;8.77;1.77;;;;;;;;;;4716349;30;20057;-83
2024/03/14 12:47:07;;;;;;;4.68;2.00;;;;;;;;;;4718488;30;20061;-84
2024/03/14 12:49:38;;;;;;;10.60;2.67;;;;;;;;;;4718029;30;20425;-83
2024/03/14 12:52:12;;;;;;;11.90;2.50;;;;;;;;;;4717606;30;20040;-84
2024/03/14 12:54:45;;;;;;;9.10;2.78;;;;;;;;;;4720018;30;20053;-83
2024/03/14 12:57:17;;;;;;;9.18;2.40;;;;;;;;;;4716340;30;20059;-83
2024/03/14 12:59:49;;;;;;;10.55;2.60;;;;;;;;;;4720599;30;20057;-85
2024/03/14 13:02:21;;;;;;;8.68;2.40;;;;;;;;;;4727244;30;20119;-83
2024/03/14 13:04:52;;;;;;;17.33;2.78;;;;;;;;;;4733847;30;20049;-84
2024/03/14 13:07:25;;;;;;;8.55;2.30;;;;;;;;;;4734579;30;20059;-82
2024/03/14 13:10:15;;;;;;;13.27;2.47;;;;;;;;;;4739881;30;20504;-81
2024/03/14 13:13:00;;;;;;;11.73;2.75;;;;;;;;;;4752507;30;20491;-85
2024/03/14 13:15:33;;;;;;;8.75;2.65;;;;;;;;;;4735321;30;20053;-83
2024/03/14 13:18:21;;;;;;;6.10;1.50;;;;;;;;;;4735509;30;20060;-82
2024/03/14 13:20:56;;;;;;;6.07;1.80;;;;;;;;;;4736340;30;20048;-84
2024/03/14 13:23:27;;;;;;;7.28;2.10;;;;;;;;;;4734327;30;20055;-85
2024/03/14 13:25:57;;;;;;;;;;;;;;;;;;4742778;30;20070;-87
2024/03/14 13:28:28;;;;;;;3.88;1.70;;;;;;;;;;4755287;30;19949;-82
2024/03/14 13:30:58;;;;;;;7.43;2.10;;;;;;;;;;4752841;30;20416;-84
2024/03/14 13:33:32;;;;;;;4.15;1.77;;;;;;;;;;4758001;30;20055;-82
2024/03/14 13:36:12;;;;;;;10.18;2.08;;;;;;;;;;4753884;30;20059;-83
2024/03/14 13:38:43;;;;;;;4.55;1.80;;;;;;;;;;4745206;30;20508;-83
2024/03/14 13:41:13;;;;;;;8.57;1.67;;;;;;;;;;4735264;30;20053;-83
2024/03/14 13:43:48;;;;;;;6.28;2.08;;;;;;;;;;4740301;30;20055;-84
2024/03/14 13:46:20;;;;;;;7.13;1.80;;;;;;;;;;4735337;30;20055;-83
2024/03/14 13:48:53;;;;;;;4.40;1.60;;;;;;;;;;4734830;30;20056;-86
2024/03/14 13:51:26;;;;;;;5.28;1.52;;;;;;;;;;4748724;30;20040;-83
2024/03/14 13:53:58;;;;;;;6.00;1.70;;;;;;;;;;4753273;30;20056;-85
2024/03/14 13:56:29;;;;;;;8.50;2.45;;;;;;;;;;4751567;30;20055;-82
2024/03/14 13:59:03;;;;;;;8.10;1.85;;;;;;;;;;4749940;30;20504;-82
2024/03/14 14:01:33;;;;;;;8.85;2.17;;;;;;;;;;4737750;30;20059;-84
2024/03/14 14:04:05;;;;;;;11.40;2.00;;;;;;;;;;4739533;30;20143;-84
2024/03/14 14:06:37;;;;;;;4.93;2.17;;;;;;;;;;4733810;30;20052;-83
2024/03/14 14:09:09;;;;;;;5.32;1.77;;;;;;;;;;4739771;30;20052;-84
2024/03/14 14:11:39;;;;;;;5.85;2.10;;;;;;;;;;4752273;30;20512;-83
2024/03/14 14:14:16;;;;;;;10.93;2.28;;;;;;;;;;4717900;30;20061;-84
2024/03/14 14:16:48;;;;;;;11.90;2.15;;;;;;;;;;4752535;30;20052;-83
2024/03/14 14:19:20;;;;;;;8.18;2.42;;;;;;;;;;4752190;30;20063;-82
2024/03/14 14:21:50;;;;;;;6.43;2.42;;;;;;;;;;4750865;30;20052;-83
2024/03/14 14:24:21;;;;;;;6.75;1.90;;;;;;;;;;4751900;30;20059;-84
2024/03/14 14:26:52;;;;;;;6.32;1.80;;;;;;;;;;4748297;30;20069;-83
2024/03/14 14:29:25;;;;;;;6.28;3.22;;;;;;;;;;4734670;30;20056;-85
2024/03/14 14:31:55;;;;;;;7.25;1.83;;;;;;;;;;4734293;30;20052;-83
2024/03/14 14:34:25;;;;;;;11.02;2.40;;;;;;;;;;4719080;30;20071;-83
2024/03/14 14:36:56;;;;;;;11.32;2.72;;;;;;;;;;4734224;30;20044;-83
2024/03/14 14:39:30;;;;;;;8.95;3.15;;;;;;;;;;4743173;30;20075;-84
2024/03/14 14:42:03;;;;;;;4.00;1.33;;;;;;;;;;4751671;30;20093;-83
2024/03/14 14:44:33;;;;;;;8.35;2.03;;;;;;;;;;4750526;30;20488;-84
2024/03/14 14:47:04;;;;;;;8.23;2.22;;;;;;;;;;4747898;30;20056;-83
2024/03/14 14:49:35;;;;;;;7.78;2.13;;;;;;;;;;4749226;30;20052;-84
2024/03/14 14:52:05;;;;;;;6.85;1.75;;;;;;;;;;4745759;30;20052;-83
2024/03/14 14:54:37;;;;;;;3.88;1.73;;;;;;;;;;4735504;30;20057;-84
2024/03/14 14:57:10;;;;;;;10.15;2.00;;;;;;;;;;4745015;30;20052;-84
2024/03/14 14:59:42;;;;;;;7.88;2.13;;;;;;;;;;4751654;30;20052;-85
2024/03/14 15:02:14;;;;;;;6.97;1.73;;;;;;;;;;4751315;30;20056;-84
2024/03/14 15:04:45;;;;;;;10.32;2.25;;;;;;;;;;4751883;30;20139;-84
2024/03/14 15:07:15;;;;;;;4.88;1.60;;;;;;;;;;4752101;30;20048;-84
2024/03/14 15:09:45;;;;;;;7.47;1.83;;;;;;;;;;4751001;30;20067;-86
2024/03/14 15:12:16;;;;;;;6.05;1.70;;;;;;;;;;4751679;30;20059;-85
2024/03/14 15:14:48;;;;;;;10.55;1.73;;;;;;;;;;4751789;30;20056;-84
2024/03/14 15:17:20;;;;;;;7.90;1.83;;;;;;;;;;4751675;30;20498;-85
2024/03/14 15:19:53;;;;;;;4.72;1.30;;;;;;;;;;4751823;30;20044;-85
2024/03/14 15:22:23;;;;;;;4.88;0.85;;;;;;;;;;4716260;30;20663;-83
2024/03/14 15:24:53;;;;;;;3.92;1.25;;;;;;;;;;4717171;30;20060;-82
2024/03/14 15:27:25;;;;;;;2.05;1.50;;;;;;;;;;4717175;30;20395;-84
2024/03/14 15:29:57;;;;;;;4.68;1.10;;;;;;;;;;4716070;30;20057;-82
2024/03/14 15:32:27;;;;;;;3.45;1.10;;;;;;;;;;4726120;30;20063;-85
2024/03/14 15:34:57;;;;;;;6.35;1.13;;;;;;;;;;4737367;30;20489;-83
2024/03/14 15:37:27;;;;;;;3.78;1.00;;;;;;;;;;4758846;30;20055;-84
2024/03/14 15:39:57;;;;;;;5.95;1.20;;;;;;;;;;4762153;30;20055;-83
2024/03/14 15:42:27;;;;;;;2.80;1.10;;;;;;;;;;4760722;30;20069;-83
2024/03/14 15:44:59;;;;;;;7.28;1.20;;;;;;;;;;4760562;30;20055;-84
2024/03/14 15:47:29;;;;;;;6.22;1.35;;;;;;;;;;4761066;30;20075;-84
2024/03/14 15:50:00;;;;;;;2.00;0.90;;;;;;;;;;4753204;30;20052;-81
2024/03/14 15:52:29;;;;;;;2.20;1.00;;;;;;;;;;4777757;30;20062;-80
2024/03/14 15:55:00;;;;;;;3.03;1.02;;;;;;;;;;4776757;30;20044;-80
2024/03/14 15:57:31;;;;;;;2.25;1.02;;;;;;;;;;4777014;30;20042;-84